Time;durP1;ratioP1;P1;durP2;ratioP2;P2;SDS_P1;SDS_P2;PMS_P1;PMS_P2;Temp;Humidity;BMP_temperature;BMP_pressure;BME280_temperature;BME280_humidity;BME280_pressure;Samples;Min_cycle;Max_cycle;Signal;HPM_P1;HPM_P2
2023/01/30 00:01:52;;;;;;;42.03;22.77;;;3.40;2.70;;;;;;5001113;28;20202;-70
2023/01/30 00:04:19;;;;;;;36.30;21.77;;;3.40;1.00;;;;;;4988991;28;20233;-71
2023/01/30 00:06:46;;;;;;;37.97;23.10;;;3.40;3.60;;;;;;4999295;28;20201;-70
2023/01/30 00:09:14;;;;;;;36.53;22.97;;;3.40;1.00;;;;;;4999906;28;20216;-69
2023/01/30 00:11:41;;;;;;;40.07;23.60;;;3.40;2.30;;;;;;4981301;28;20236;-68
2023/01/30 00:14:08;;;;;;;35.47;21.37;;;3.50;4.60;;;;;;4982845;28;20647;-70
2023/01/30 00:16:35;;;;;;;42.57;25.23;;;3.40;4.10;;;;;;4981359;28;20216;-71
2023/01/30 00:19:03;;;;;;;41.70;23.13;;;3.50;5.50;;;;;;4981623;28;20228;-68
2023/01/30 00:21:30;;;;;;;40.53;22.60;;;3.50;9.80;;;;;;4980942;28;20209;-69
2023/01/30 00:23:58;;;;;;;39.50;22.83;;;3.50;9.60;;;;;;4980831;28;20672;-66
2023/01/30 00:26:25;;;;;;;42.10;24.40;;;3.50;11.10;;;;;;5000119;28;20243;-71
2023/01/30 00:28:53;;;;;;;41.03;22.20;;;3.50;14.30;;;;;;4998859;28;20241;-69
2023/01/30 00:31:20;;;;;;;43.47;23.80;;;3.50;21.70;;;;;;4981520;28;20270;-69
2023/01/30 00:33:49;;;;;;;45.63;23.73;;;3.60;24.20;;;;;;4997733;28;20200;-70
2023/01/30 00:36:16;;;;;;;45.87;25.07;;;3.60;24.60;;;;;;5000045;28;20225;-69
2023/01/30 00:38:43;;;;;;;38.80;22.23;;;3.60;28.40;;;;;;4980070;28;20209;-69
2023/01/30 00:41:12;;;;;;;38.30;21.27;;;3.60;32.30;;;;;;4997579;28;20303;-69
2023/01/30 00:47:04;;;;;;;34.23;20.17;;;3.60;42.60;;;;;;4998139;28;20204;-69
2023/01/30 00:49:16;;;;;;;40.03;22.90;;;3.70;54.90;;;;;;4998766;28;20208;-69
2023/01/30 00:51:43;;;;;;;41.20;23.37;;;3.70;55.60;;;;;;4999091;28;20254;-70
2023/01/30 00:54:12;;;;;;;38.20;21.37;;;3.70;61.70;;;;;;4979627;28;20871;-70
2023/01/30 00:56:39;;;;;;;40.47;23.17;;;3.70;66.10;;;;;;4997524;28;20228;-69
2023/01/30 00:59:06;;;;;;;38.93;22.83;;;3.80;76.50;;;;;;4999062;28;20224;-68
2023/01/30 01:01:33;;;;;;;41.87;23.17;;;3.80;78.70;;;;;;4996484;28;20673;-69
2023/01/30 01:04:00;;;;;;;40.50;22.87;;;3.80;85.30;;;;;;4978363;28;20316;-69
2023/01/30 01:06:27;;;;;;;42.30;21.73;;;3.80;83.00;;;;;;4986519;28;20206;-68
2023/01/30 01:08:55;;;;;;;42.27;23.47;;;3.90;93.30;;;;;;4979525;28;20205;-69
2023/01/30 01:11:25;;;;;;;42.00;23.47;;;3.90;95.10;;;;;;4978694;28;20735;-71
2023/01/30 01:13:58;;;;;;;41.93;23.73;;;3.90;97.10;;;;;;4973490;28;20194;-72
2023/01/30 01:16:28;;;;;;;39.73;22.77;;;4.00;99.90;;;;;;4993499;28;20221;-69
2023/01/30 01:18:57;;;;;;;42.07;22.23;;;4.00;99.90;;;;;;4993520;28;20233;-69
2023/01/30 01:21:24;;;;;;;39.53;22.17;;;4.10;99.90;;;;;;4985246;28;20256;-68
2023/01/30 01:23:56;;;;;;;45.33;22.93;;;4.10;99.90;;;;;;4992589;28;20202;-69
2023/01/30 01:26:23;;;;;;;40.20;23.13;;;4.20;99.90;;;;;;4986586;28;20285;-69
2023/01/30 01:28:54;;;;;;;40.90;23.33;;;4.10;99.90;;;;;;4994699;28;20760;-71
2023/01/30 01:31:22;;;;;;;38.53;22.77;;;4.20;99.90;;;;;;4992316;28;20682;-69
2023/01/30 01:33:50;;;;;;;36.83;21.67;;;4.20;99.90;;;;;;4976352;28;20206;-71
2023/01/30 01:36:17;;;;;;;42.30;24.50;;;4.10;99.90;;;;;;4998898;28;20309;-69
2023/01/30 01:39:05;;;;;;;39.17;22.97;;;4.10;99.90;;;;;;4988316;28;20212;-70
2023/01/30 01:41:32;;;;;;;38.97;23.70;;;4.10;99.90;;;;;;4985185;28;20696;-70
2023/01/30 01:44:01;;;;;;;42.90;24.10;;;4.20;99.90;;;;;;4993032;28;20201;-69
2023/01/30 01:46:49;;;;;;;42.07;21.97;;;4.20;99.90;;;;;;4977238;28;20201;-65
2023/01/30 01:49:26;;;;;;;41.83;21.30;;;4.20;99.90;;;;;;4992160;28;20311;-69
2023/01/30 01:52:06;;;;;;;39.87;22.93;;;4.20;99.90;;;;;;4978665;28;20646;-69
2023/01/30 01:54:39;;;;;;;35.23;21.43;;;4.20;99.90;;;;;;4964364;28;20292;-70
2023/01/30 01:57:14;;;;;;;40.97;23.03;;;4.20;99.90;;;;;;4977927;28;20886;-71
2023/01/30 01:59:56;;;;;;;40.97;23.20;;;4.20;99.90;;;;;;4979044;28;20909;-70
2023/01/30 02:02:23;;;;;;;40.23;22.77;;;4.20;99.90;;;;;;4980029;28;20247;-69
2023/01/30 02:05:02;;;;;;;38.67;21.80;;;4.20;99.90;;;;;;5001358;28;20201;-68
2023/01/30 02:07:52;;;;;;;37.53;22.17;;;4.20;99.90;;;;;;4972295;28;20232;-70
2023/01/30 02:10:44;;;;;;;42.60;24.03;;;4.20;99.90;;;;;;5004817;28;20677;-69
2023/01/30 02:13:11;;;;;;;32.17;20.53;;;4.20;99.90;;;;;;4996907;28;20201;-71
2023/01/30 02:15:38;;;;;;;38.70;21.87;;;4.20;99.90;;;;;;4997302;28;20217;-70
2023/01/30 02:18:06;;;;;;;36.27;22.10;;;4.20;99.90;;;;;;4997916;28;20193;-69
2023/01/30 02:20:45;;;;;;;40.83;23.00;;;4.20;1.00;;;;;;4998576;28;20208;-70
2023/01/30 02:23:27;;;;;;;39.80;22.13;;;4.20;1.00;;;;;;4972417;28;20201;-70
2023/01/30 02:26:32;;;;;;;42.90;24.10;;;4.30;1.00;;;;;;4984155;28;20689;-69
2023/01/30 02:29:31;;;;;;;38.47;21.20;;;4.30;1.00;;;;;;4983300;28;20307;-71
2023/01/30 02:32:04;;;;;;;43.57;23.43;;;4.40;1.00;;;;;;5000147;28;20700;-68
2023/01/30 02:34:53;;;;;;;36.77;22.23;;;4.40;1.00;;;;;;4984750;28;20213;-70
2023/01/30 02:37:36;;;;;;;43.67;24.30;;;4.30;1.00;;;;;;4984607;28;20657;-68
2023/01/30 02:40:09;;;;;;;41.80;23.20;;;4.30;1.00;;;;;;4982498;28;20304;-71
2023/01/30 02:42:58;;;;;;;39.13;23.40;;;4.30;1.00;;;;;;5001185;28;20186;-70
2023/01/30 02:45:25;;;;;;;39.60;24.63;;;4.30;1.00;;;;;;5000580;28;20228;-70
2023/01/30 02:48:01;;;;;;;40.77;23.77;;;4.40;1.00;;;;;;4999474;28;20258;-70
2023/01/30 02:50:39;;;;;;;41.97;23.60;;;4.40;1.00;;;;;;5001681;28;20227;-68
2023/01/30 02:53:07;;;;;;;40.90;23.47;;;4.40;1.00;;;;;;4975169;28;20201;-67
2023/01/30 02:55:35;;;;;;;40.60;24.03;;;4.40;1.00;;;;;;4984045;28;20251;-68
2023/01/30 02:58:04;;;;;;;45.33;25.30;;;4.40;1.00;;;;;;4999832;28;20293;-68
2023/01/30 03:01:02;;;;;;;43.37;25.13;;;4.30;1.00;;;;;;5000922;28;20244;-67
2023/01/30 03:04:04;;;;;;;44.23;25.40;;;4.40;1.00;;;;;;4999968;28;20236;-68
2023/01/30 03:07:01;;;;;;;51.40;27.43;;;4.40;1.00;;;;;;4999849;28;20284;-68
2023/01/30 03:09:53;;;;;;;45.53;25.53;;;4.40;1.00;;;;;;4991825;28;20267;-68
2023/01/30 03:12:46;;;;;;;46.13;25.63;;;4.50;1.00;;;;;;4983769;28;20232;-67
2023/01/30 03:15:21;;;;;;;46.23;25.87;;;4.50;1.00;;;;;;5006735;28;20275;-68
2023/01/30 03:17:49;;;;;;;44.67;26.63;;;4.40;1.00;;;;;;4981677;28;20205;-67
2023/01/30 03:20:18;;;;;;;51.10;30.53;;;4.50;1.00;;;;;;4983475;28;20669;-68
2023/01/30 03:22:45;;;;;;;45.90;26.07;;;4.50;1.00;;;;;;4982641;28;20202;-61
2023/01/30 03:25:19;;;;;;;45.93;26.57;;;4.50;1.00;;;;;;4983892;28;20205;-60
2023/01/30 03:27:49;;;;;;;51.33;28.80;;;4.50;1.00;;;;;;5000995;28;20676;-61
2023/01/30 03:30:16;;;;;;;50.50;29.23;;;4.50;1.00;;;;;;4990568;28;20982;-60
2023/01/30 03:32:43;;;;;;;50.20;25.53;;;4.60;1.00;;;;;;5006188;28;20800;-61
2023/01/30 03:35:11;;;;;;;51.83;28.67;;;4.70;1.00;;;;;;4999503;28;20243;-61
2023/01/30 03:37:38;;;;;;;53.90;30.50;;;4.70;1.00;;;;;;4998458;28;20232;-61
2023/01/30 03:40:06;;;;;;;55.60;29.87;;;4.70;1.00;;;;;;4982009;28;20213;-68
2023/01/30 03:42:33;;;;;;;53.50;28.33;;;4.70;1.00;;;;;;4982516;28;20730;-66
2023/01/30 03:45:00;;;;;;;47.50;28.07;;;4.70;1.00;;;;;;4999306;28;20220;-61
2023/01/30 03:47:27;;;;;;;50.17;26.90;;;4.70;1.00;;;;;;5007593;28;20209;-62
2023/01/30 03:49:55;;;;;;;48.17;28.03;;;4.70;1.00;;;;;;4984016;28;20304;-61
2023/01/30 03:52:22;;;;;;;49.50;27.40;;;4.70;1.00;;;;;;4998351;28;20197;-62
2023/01/30 03:54:49;;;;;;;44.00;28.03;;;4.70;1.00;;;;;;4966658;28;20209;-61
2023/01/30 03:57:16;;;;;;;49.00;28.73;;;4.70;1.00;;;;;;4981648;28;20217;-61
2023/01/30 03:59:43;;;;;;;58.23;30.80;;;4.70;1.00;;;;;;4999006;28;20217;-61
2023/01/30 04:02:13;;;;;;;52.40;29.50;;;4.80;1.00;;;;;;4981418;28;20243;-61
2023/01/30 04:04:42;;;;;;;53.27;28.87;;;4.70;1.00;;;;;;5004499;28;20625;-62
2023/01/30 04:07:10;;;;;;;46.33;28.23;;;4.70;1.00;;;;;;5005406;28;20583;-62
2023/01/30 04:09:38;;;;;;;48.40;28.30;;;4.70;1.00;;;;;;4980981;28;20201;-62
2023/01/30 04:12:06;;;;;;;51.93;28.67;;;4.80;1.00;;;;;;4997177;28;20681;-64
2023/01/30 04:14:38;;;;;;;53.37;27.93;;;4.80;1.00;;;;;;4980612;28;20197;-62
2023/01/30 04:17:21;;;;;;;47.43;27.83;;;4.80;1.00;;;;;;4980549;28;20221;-63
2023/01/30 04:20:09;;;;;;;47.00;28.27;;;4.80;1.00;;;;;;4970247;28;20274;-67
2023/01/30 04:22:38;;;;;;;49.43;28.60;;;4.80;17.90;;;;;;4995198;28;20562;-61
2023/01/30 04:25:05;;;;;;;46.23;27.63;;;4.80;91.70;;;;;;4998194;28;20231;-61
2023/01/30 04:27:32;;;;;;;43.77;27.33;;;4.80;99.90;;;;;;5005786;28;20566;-61
2023/01/30 04:30:12;;;;;;;55.07;29.37;;;4.80;99.90;;;;;;4969432;28;20603;-61
2023/01/30 04:32:39;;;;;;;53.20;29.90;;;4.80;99.90;;;;;;5003505;28;20204;-62
2023/01/30 04:35:09;;;;;;;47.50;28.73;;;4.80;99.90;;;;;;4989973;28;20218;-60
2023/01/30 04:37:37;;;;;;;47.90;25.80;;;4.80;99.90;;;;;;4981257;28;20776;-68
2023/01/30 04:40:06;;;;;;;44.57;27.10;;;4.80;1.00;;;;;;4996719;28;20197;-68
2023/01/30 04:42:34;;;;;;;53.93;29.20;;;4.80;1.00;;;;;;4997329;28;20255;-69
2023/01/30 04:45:19;;;;;;;51.67;29.07;;;4.90;1.00;;;;;;4998450;28;20340;-67
2023/01/30 04:47:48;;;;;;;50.70;29.47;;;4.80;1.00;;;;;;4980915;28;20209;-68
2023/01/30 04:50:15;;;;;;;45.37;28.93;;;4.80;1.00;;;;;;4980857;28;20764;-68
2023/01/30 04:52:42;;;;;;;44.67;27.30;;;4.80;1.00;;;;;;5000108;28;20196;-68
2023/01/30 04:55:10;;;;;;;48.40;28.53;;;4.80;1.00;;;;;;4982259;28;20197;-68
2023/01/30 04:57:37;;;;;;;45.83;27.60;;;4.90;1.00;;;;;;4999285;28;20549;-69
2023/01/30 05:00:05;;;;;;;44.13;27.07;;;4.90;1.00;;;;;;4982748;28;20681;-69
2023/01/30 05:02:35;;;;;;;46.43;27.80;;;4.90;1.00;;;;;;4941017;28;1125903;-68
2023/01/30 05:05:02;;;;;;;43.93;27.67;;;4.90;1.00;;;;;;5000015;28;20201;-68
2023/01/30 05:07:30;;;;;;;44.80;26.33;;;4.90;1.00;;;;;;4999389;28;20666;-69
2023/01/30 05:09:57;;;;;;;44.37;27.07;;;4.90;1.00;;;;;;4980271;28;20320;-68
2023/01/30 05:12:24;;;;;;;43.63;25.50;;;5.00;1.00;;;;;;4982032;28;20209;-69
2023/01/30 05:14:51;;;;;;;40.93;25.60;;;5.00;1.00;;;;;;4998524;28;20268;-68
2023/01/30 05:17:17;;;;;;;40.07;26.07;;;5.00;1.00;;;;;;4999173;28;20221;-68
2023/01/30 05:19:44;;;;;;;38.80;25.20;;;5.00;1.00;;;;;;4999753;28;20703;-69
2023/01/30 05:22:11;;;;;;;38.57;26.10;;;5.00;1.00;;;;;;4995703;28;20204;-68
2023/01/30 05:24:38;;;;;;;40.70;26.53;;;4.90;1.00;;;;;;4982723;28;20259;-68
2023/01/30 05:27:05;;;;;;;36.17;24.73;;;4.90;1.00;;;;;;4998943;28;20224;-68
2023/01/30 05:29:32;;;;;;;40.07;27.43;;;5.00;1.00;;;;;;4998022;28;20197;-68
2023/01/30 05:31:59;;;;;;;40.30;26.57;;;5.00;1.00;;;;;;4981901;28;20190;-68
2023/01/30 05:34:26;;;;;;;41.40;25.93;;;5.00;1.00;;;;;;4997803;28;20529;-66
2023/01/30 05:36:53;;;;;;;43.37;27.03;;;5.10;1.00;;;;;;4976920;28;20617;-68
2023/01/30 05:39:20;;;;;;;38.30;22.43;;;5.10;1.00;;;;;;4996253;28;20260;-68
2023/01/30 05:41:47;;;;;;;36.50;23.37;;;5.10;1.00;;;;;;4996858;28;20197;-69
2023/01/30 05:44:14;;;;;;;35.80;24.83;;;5.10;1.00;;;;;;4999271;28;20219;-67
2023/01/30 05:46:41;;;;;;;39.13;24.93;;;5.10;1.00;;;;;;4986411;28;20200;-69
2023/01/30 05:49:08;;;;;;;35.37;25.90;;;5.10;1.00;;;;;;4996434;28;20220;-70
2023/01/30 05:51:35;;;;;;;35.70;23.43;;;5.10;1.00;;;;;;4997086;28;20209;-69
2023/01/30 05:54:02;;;;;;;34.73;24.40;;;5.10;99.90;;;;;;4979499;28;20205;-69
2023/01/30 05:56:32;;;;;;;37.97;25.93;;;5.20;99.90;;;;;;4987293;28;20217;-69
2023/01/30 05:59:00;;;;;;;34.27;26.00;;;5.20;99.90;;;;;;4996019;28;21165;-69
2023/01/30 06:01:28;;;;;;;36.67;23.63;;;5.30;99.90;;;;;;4983211;28;20210;-69
2023/01/30 06:03:56;;;;;;;34.60;24.27;;;5.20;99.90;;;;;;5000892;28;20236;-72
2023/01/30 06:06:24;;;;;;;35.87;24.67;;;5.20;1.00;;;;;;5001572;28;20207;-67
2023/01/30 06:08:55;;;;;;;39.27;26.23;;;5.30;1.00;;;;;;4984414;28;20934;-70
2023/01/30 06:11:23;;;;;;;38.73;28.93;;;5.30;1.00;;;;;;5001742;28;20276;-68
2023/01/30 06:13:50;;;;;;;35.93;25.40;;;5.30;1.00;;;;;;5000112;28;20197;-69
2023/01/30 06:16:18;;;;;;;38.63;23.57;;;5.40;1.00;;;;;;5000718;28;20201;-70
2023/01/30 06:18:48;;;;;;;34.00;25.17;;;5.40;1.00;;;;;;4982617;28;20733;-69
2023/01/30 06:21:15;;;;;;;37.70;26.50;;;5.50;1.00;;;;;;4996081;28;20197;-70
2023/01/30 06:23:43;;;;;;;33.97;26.33;;;5.40;1.00;;;;;;4999443;28;20193;-70
2023/01/30 06:26:10;;;;;;;36.23;25.43;;;5.60;1.00;;;;;;4999818;28;20200;-69
2023/01/30 06:28:37;;;;;;;35.33;26.83;;;5.60;1.00;;;;;;4982768;28;20217;-69
2023/01/30 06:31:07;;;;;;;36.43;25.53;;;5.50;1.00;;;;;;5000389;28;20189;-68
2023/01/30 06:33:35;;;;;;;32.23;24.97;;;5.50;1.00;;;;;;4996647;28;20201;-73
2023/01/30 06:36:02;;;;;;;31.00;22.57;;;5.50;1.00;;;;;;4990222;28;20201;-70
2023/01/30 06:38:29;;;;;;;33.77;25.07;;;5.50;1.00;;;;;;4999809;28;20735;-66
2023/01/30 06:40:56;;;;;;;34.97;25.83;;;5.60;1.00;;;;;;5000325;28;20229;-69
2023/01/30 06:43:23;;;;;;;31.63;23.87;;;5.60;1.00;;;;;;4991017;28;20224;-69
2023/01/30 06:45:50;;;;;;;34.00;24.23;;;5.60;1.00;;;;;;4999352;28;20220;-67
2023/01/30 06:48:17;;;;;;;36.90;27.43;;;5.60;1.00;;;;;;4999154;28;20209;-69
2023/01/30 06:50:46;;;;;;;38.77;26.67;;;5.60;1.00;;;;;;5000878;28;20197;-68
2023/01/30 06:53:13;;;;;;;39.10;28.40;;;5.70;1.00;;;;;;5000048;28;20201;-68
2023/01/30 06:55:40;;;;;;;43.63;27.70;;;5.70;1.00;;;;;;4983132;28;20533;-67
2023/01/30 06:58:12;;;;;;;37.40;26.17;;;5.70;99.90;;;;;;4992621;28;20245;-68
2023/01/30 07:00:41;;;;;;;41.30;27.27;;;5.70;99.90;;;;;;4999309;28;20198;-69
2023/01/30 07:03:13;;;;;;;38.93;27.27;;;5.70;99.90;;;;;;4990277;28;20242;-68
2023/01/30 07:05:42;;;;;;;40.73;27.20;;;5.80;12.30;;;;;;4990270;28;20609;-69
2023/01/30 07:08:09;;;;;;;39.33;27.00;;;5.80;61.80;;;;;;4989989;28;20193;-69
2023/01/30 07:10:37;;;;;;;38.63;26.33;;;5.80;49.00;;;;;;5000647;28;20613;-69
2023/01/30 07:13:04;;;;;;;47.37;29.13;;;5.90;42.50;;;;;;4981899;28;20197;-71
2023/01/30 07:15:31;;;;;;;37.80;26.17;;;5.80;5.40;;;;;;4998171;28;20789;-68
2023/01/30 07:17:59;;;;;;;38.83;26.53;;;5.90;1.00;;;;;;4998595;28;20305;-67
2023/01/30 07:20:26;;;;;;;43.10;26.37;;;5.90;1.00;;;;;;4980957;28;20190;-69
2023/01/30 07:22:54;;;;;;;42.10;24.33;;;6.00;1.00;;;;;;4991794;28;20577;-68
2023/01/30 07:25:23;;;;;;;50.20;31.70;;;6.10;1.00;;;;;;4960308;28;20248;-68
2023/01/30 07:27:56;;;;;;;47.43;31.47;;;6.00;1.00;;;;;;4992585;28;20197;-69
2023/01/30 07:30:24;;;;;;;39.50;26.97;;;6.00;1.00;;;;;;4999802;28;20196;-68
2023/01/30 07:32:53;;;;;;;35.97;23.40;;;6.00;1.00;;;;;;4998999;28;20221;-69
2023/01/30 07:35:24;;;;;;;32.53;22.07;;;6.00;1.00;;;;;;4992612;28;20217;-68
2023/01/30 07:37:51;;;;;;;32.53;20.87;;;6.00;1.00;;;;;;4997545;28;20218;-67
2023/01/30 07:40:19;;;;;;;28.13;18.13;;;6.00;99.90;;;;;;4996925;28;20221;-69
2023/01/30 07:42:59;;;;;;;22.80;12.57;;;6.00;1.00;;;;;;4982223;28;20232;-68
2023/01/30 07:45:33;;;;;;;16.93;8.93;;;5.80;1.00;;;;;;4995363;28;20194;-67
2023/01/30 07:48:00;;;;;;;16.43;8.20;;;5.60;99.90;;;;;;4978568;28;20295;-70
2023/01/30 07:50:27;;;;;;;17.17;6.23;;;5.60;12.40;;;;;;4997970;28;20568;-69
2023/01/30 07:52:54;;;;;;;16.27;6.77;;;5.60;1.00;;;;;;4996657;28;20228;-67
2023/01/30 07:55:21;;;;;;;20.20;5.60;;;5.70;1.00;;;;;;4972576;28;20209;-69
2023/01/30 07:57:48;;;;;;;12.40;5.03;;;5.70;1.00;;;;;;4997891;28;20222;-68
2023/01/30 08:00:16;;;;;;;20.17;4.93;;;5.70;1.00;;;;;;4980559;28;20292;-67
2023/01/30 08:02:44;;;;;;;13.77;5.07;;;5.80;1.00;;;;;;4994769;28;20217;-69
2023/01/30 08:05:11;;;;;;;16.00;4.43;;;5.80;1.00;;;;;;4990982;28;20732;-68
2023/01/30 08:07:38;;;;;;;16.10;5.20;;;5.80;1.00;;;;;;4982463;28;20234;-69
2023/01/30 08:10:05;;;;;;;13.00;5.80;;;5.70;1.00;;;;;;4968867;28;20205;-68
2023/01/30 08:12:32;;;;;;;13.20;6.10;;;5.80;1.00;;;;;;4969264;28;20206;-68
2023/01/30 08:14:59;;;;;;;20.00;6.33;;;5.80;99.90;;;;;;4976582;28;20232;-69
2023/01/30 08:17:26;;;;;;;11.43;5.50;;;5.90;99.90;;;;;;4987570;28;20226;-66
2023/01/30 08:19:53;;;;;;;17.20;5.87;;;5.90;99.90;;;;;;4993964;28;20200;-74
2023/01/30 08:22:20;;;;;;;12.30;5.17;;;5.90;99.90;;;;;;4988154;28;20209;-68
2023/01/30 08:24:47;;;;;;;16.07;5.67;;;5.80;99.90;;;;;;4990258;28;20748;-75
2023/01/30 08:27:14;;;;;;;16.63;5.00;;;5.80;99.90;;;;;;4987136;28;20213;-71
2023/01/30 08:29:42;;;;;;;23.57;4.83;;;5.70;99.90;;;;;;4989662;28;20205;-66
2023/01/30 08:32:09;;;;;;;18.57;4.63;;;5.70;99.90;;;;;;4980618;28;20205;-69
2023/01/30 08:34:36;;;;;;;22.37;4.40;;;5.60;99.90;;;;;;4994374;28;20319;-66
2023/01/30 08:37:03;;;;;;;12.80;4.00;;;5.70;99.90;;;;;;4992553;28;20253;-69
2023/01/30 08:39:30;;;;;;;18.13;6.47;;;6.00;99.90;;;;;;4987248;28;20219;-69
2023/01/30 08:41:57;;;;;;;19.17;3.30;;;6.00;99.90;;;;;;5003227;28;20213;-66
2023/01/30 08:44:24;;;;;;;13.53;3.03;;;6.00;92.20;;;;;;4994444;28;20276;-69
2023/01/30 08:46:51;;;;;;;20.10;3.47;;;6.00;54.80;;;;;;4995221;28;20650;-68
2023/01/30 08:49:18;;;;;;;10.90;3.23;;;6.10;42.20;;;;;;4986875;28;20197;-64
2023/01/30 08:51:45;;;;;;;12.17;2.83;;;6.10;6.70;;;;;;4991477;28;20602;-67
2023/01/30 08:54:12;;;;;;;16.87;3.53;;;6.30;2.70;;;;;;4995099;28;20198;-67
2023/01/30 08:56:39;;;;;;;13.37;3.17;;;6.40;1.00;;;;;;5001858;28;20303;-69
2023/01/30 08:59:06;;;;;;;11.03;2.63;;;6.40;1.00;;;;;;5002139;28;20720;-69
2023/01/30 09:01:33;;;;;;;15.50;3.60;;;6.40;1.00;;;;;;4979550;28;20266;-67
2023/01/30 09:04:00;;;;;;;17.47;3.50;;;6.30;1.00;;;;;;4975127;28;20269;-67
2023/01/30 09:06:27;;;;;;;9.63;3.00;;;6.40;1.00;;;;;;4968963;28;20669;-68
2023/01/30 09:08:54;;;;;;;19.07;3.47;;;6.50;1.00;;;;;;4976280;28;20238;-67
2023/01/30 09:11:21;;;;;;;16.23;3.40;;;6.60;1.00;;;;;;4976510;28;20209;-69
2023/01/30 09:13:48;;;;;;;11.70;3.17;;;6.50;1.00;;;;;;4977578;28;20306;-70
2023/01/30 09:16:15;;;;;;;16.37;3.73;;;6.80;1.00;;;;;;4974553;28;20747;-68
2023/01/30 09:18:44;;;;;;;13.60;3.77;;;6.90;1.00;;;;;;4971580;28;20697;-68
2023/01/30 09:21:12;;;;;;;16.93;4.07;;;6.80;1.00;;;;;;4975895;28;20696;-67
2023/01/30 09:23:39;;;;;;;19.13;5.80;;;6.80;1.00;;;;;;4976542;28;20193;-69
2023/01/30 09:26:06;;;;;;;17.10;6.17;;;6.80;1.00;;;;;;4974199;28;20490;-68
2023/01/30 09:28:33;;;;;;;14.33;3.97;;;7.00;1.00;;;;;;4976858;28;20199;-69
2023/01/30 09:31:01;;;;;;;16.37;4.00;;;8.20;1.00;;;;;;4976972;28;20645;-68
2023/01/30 09:33:28;;;;;;;11.90;3.10;;;7.80;1.00;;;;;;4979613;28;20202;-68
2023/01/30 09:35:55;;;;;;;19.53;4.27;;;7.40;1.00;;;;;;4976725;28;20301;-70
2023/01/30 09:38:22;;;;;;;11.17;3.37;;;7.20;1.00;;;;;;4995433;28;20209;-68
2023/01/30 09:40:58;;;;;;;19.17;3.73;;;7.10;1.00;;;;;;4980672;28;20696;-68
2023/01/30 09:43:58;;;;;;;21.53;4.53;;;7.00;1.00;;;;;;4981605;28;20252;-69
2023/01/30 09:47:01;;;;;;;16.07;3.43;;;7.00;1.00;;;;;;4996061;28;20201;-67
2023/01/30 09:49:48;;;;;;;15.33;3.20;;;6.90;1.00;;;;;;4971826;28;21221;-68
2023/01/30 09:52:25;;;;;;;17.73;3.97;;;6.90;1.00;;;;;;4980825;28;20213;-69
2023/01/30 09:55:17;;;;;;;16.47;4.10;;;7.00;1.00;;;;;;4975358;28;20248;-69
2023/01/30 09:57:47;;;;;;;14.93;4.50;;;7.00;1.00;;;;;;4996590;28;20736;-68
2023/01/30 10:00:34;;;;;;;17.70;4.00;;;7.00;1.00;;;;;;4979019;28;20190;-67
2023/01/30 10:03:07;;;;;;;15.63;3.67;;;6.90;1.00;;;;;;4993189;28;20296;-66
2023/01/30 10:05:39;;;;;;;15.67;3.53;;;6.80;1.00;;;;;;4996450;28;20194;-68
2023/01/30 10:08:31;;;;;;;15.10;3.47;;;6.80;1.00;;;;;;4999664;28;20196;-68
2023/01/30 10:11:13;;;;;;;20.80;3.90;;;6.90;1.00;;;;;;4983258;28;20196;-69
2023/01/30 10:14:18;;;;;;;22.87;4.37;;;7.00;1.00;;;;;;4998291;28;20197;-69
2023/01/30 10:17:06;;;;;;;17.87;4.60;;;7.20;1.00;;;;;;4998048;28;20215;-68
2023/01/30 10:19:39;;;;;;;22.07;4.33;;;9.50;1.00;;;;;;5000924;28;20689;-70
2023/01/30 10:22:34;;;;;;;12.40;3.00;;;11.70;1.00;;;;;;4981705;28;20205;-71
2023/01/30 10:25:33;;;;;;;18.97;4.33;;;14.80;1.00;;;;;;4999160;28;20185;-69
2023/01/30 10:28:11;;;;;;;15.50;3.97;;;12.60;1.00;;;;;;4971962;28;20213;-71
2023/01/30 10:30:39;;;;;;;13.73;3.77;;;10.50;1.00;;;;;;4990308;28;20807;-67
2023/01/30 10:33:44;;;;;;;17.87;3.90;;;9.10;1.00;;;;;;4993397;28;20220;-66
2023/01/30 10:36:31;;;;;;;21.93;4.00;;;8.30;1.00;;;;;;4988699;28;20259;-68
2023/01/30 10:39:01;;;;;;;16.97;3.50;;;7.90;1.00;;;;;;4989572;28;20709;-68
2023/01/30 10:41:42;;;;;;;22.07;3.37;;;7.80;1.00;;;;;;4998487;28;20241;-68
2023/01/30 10:44:12;;;;;;;24.73;5.30;;;7.80;1.00;;;;;;4996367;28;20622;-69
2023/01/30 10:46:45;;;;;;;15.10;3.97;;;7.90;1.00;;;;;;4989040;28;20201;-69
2023/01/30 10:49:39;;;;;;;14.73;3.83;;;7.90;1.00;;;;;;4998377;28;20855;-67
2023/01/30 10:52:44;;;;;;;18.80;3.67;;;7.80;1.00;;;;;;4998130;28;20216;-67
2023/01/30 10:55:26;;;;;;;21.47;4.07;;;7.60;1.00;;;;;;4998758;28;20200;-71
2023/01/30 10:58:25;;;;;;;23.33;4.67;;;7.50;1.00;;;;;;4975111;28;20218;-68
2023/01/30 11:01:21;;;;;;;16.37;4.70;;;7.40;1.00;;;;;;4995512;28;20204;-68
2023/01/30 11:04:21;;;;;;;18.80;4.40;;;7.50;1.00;;;;;;4960950;28;20240;-67
2023/01/30 11:06:51;;;;;;;22.07;4.00;;;7.50;1.00;;;;;;4983973;28;20201;-69
2023/01/30 11:09:18;;;;;;;18.87;5.07;;;7.50;1.00;;;;;;4996974;28;20557;-69
2023/01/30 11:11:53;;;;;;;17.90;4.13;;;7.50;1.00;;;;;;4996912;28;20202;-68
2023/01/30 11:14:20;;;;;;;15.97;4.17;;;7.60;1.00;;;;;;4995788;28;20772;-68
2023/01/30 11:16:52;;;;;;;19.63;4.30;;;7.60;1.00;;;;;;4995451;28;20232;-69
2023/01/30 11:19:30;;;;;;;13.77;3.67;;;7.50;1.00;;;;;;4995739;28;20312;-67
2023/01/30 11:22:01;;;;;;;15.87;3.67;;;7.40;1.00;;;;;;4998207;28;20298;-64
2023/01/30 11:24:40;;;;;;;18.90;3.60;;;7.60;1.00;;;;;;4989038;28;20201;-67
2023/01/30 11:27:23;;;;;;;23.60;4.53;;;7.60;1.00;;;;;;4997124;28;20197;-66
2023/01/30 11:30:06;;;;;;;16.07;3.93;;;7.60;1.00;;;;;;4996345;28;20289;-67
2023/01/30 11:32:33;;;;;;;23.77;4.87;;;7.70;1.00;;;;;;4998815;28;20711;-65
2023/01/30 11:35:05;;;;;;;20.43;3.87;;;7.70;1.00;;;;;;4998129;28;20209;-67
2023/01/30 11:37:36;;;;;;;20.90;3.90;;;8.20;1.00;;;;;;4980048;28;20251;-64
2023/01/30 11:40:25;;;;;;;18.80;4.43;;;8.50;1.00;;;;;;4997612;28;20281;-65
2023/01/30 11:43:00;;;;;;;19.57;3.60;;;8.10;1.00;;;;;;4998497;28;20679;-67
2023/01/30 11:45:29;;;;;;;11.73;3.20;;;7.90;1.00;;;;;;4987959;28;20205;-67
2023/01/30 11:48:03;;;;;;;22.60;4.47;;;7.80;1.00;;;;;;4981246;28;20529;-65
2023/01/30 11:50:46;;;;;;;16.63;3.93;;;7.70;1.00;;;;;;4981357;28;20207;-68
2023/01/30 11:53:43;;;;;;;13.23;3.13;;;7.70;1.00;;;;;;4995726;28;20197;-68
2023/01/30 11:56:21;;;;;;;16.73;4.07;;;7.90;1.00;;;;;;4996894;28;20206;-70
2023/01/30 11:58:57;;;;;;;12.77;3.30;;;7.90;1.00;;;;;;4981802;28;20715;-67
2023/01/30 12:01:28;;;;;;;21.27;4.40;;;7.80;1.00;;;;;;4997947;28;20189;-73
2023/01/30 12:03:56;;;;;;;16.23;3.83;;;7.90;1.00;;;;;;4989139;28;20505;-67
2023/01/30 12:06:35;;;;;;;13.50;3.40;;;8.10;1.00;;;;;;5002449;28;20206;-68
2023/01/30 12:09:03;;;;;;;15.80;2.90;;;8.30;1.00;;;;;;4995765;28;20423;-67
2023/01/30 12:11:38;;;;;;;15.83;3.20;;;9.30;1.00;;;;;;4993842;28;20790;-69
2023/01/30 12:14:31;;;;;;;18.80;4.07;;;9.50;1.00;;;;;;4975693;28;20251;-69
2023/01/30 12:17:20;;;;;;;19.13;3.90;;;9.40;1.00;;;;;;4986249;28;20196;-67
2023/01/30 12:20:02;;;;;;;14.20;3.40;;;9.20;1.00;;;;;;4965018;28;20225;-68
2023/01/30 12:22:35;;;;;;;14.53;3.93;;;9.00;1.00;;;;;;4998331;28;20217;-68
2023/01/30 12:25:19;;;;;;;16.33;3.50;;;9.00;1.00;;;;;;4980734;28;20316;-68
2023/01/30 12:28:14;;;;;;;18.50;4.00;;;9.30;1.00;;;;;;4979888;28;20601;-69
2023/01/30 12:30:55;;;;;;;19.43;3.67;;;9.60;1.00;;;;;;4974558;28;20213;-71
2023/01/30 12:33:27;;;;;;;12.53;3.60;;;10.50;1.00;;;;;;4982266;28;20208;-69
2023/01/30 12:36:12;;;;;;;17.83;3.60;;;10.50;1.00;;;;;;4979295;28;20560;-71
2023/01/30 12:39:04;;;;;;;15.27;3.53;;;11.60;1.00;;;;;;4997871;28;20228;-70
2023/01/30 12:41:57;;;;;;;13.20;4.20;;;12.40;1.00;;;;;;4981353;28;20239;-71
2023/01/30 12:44:43;;;;;;;17.50;3.63;;;12.10;1.00;;;;;;4995109;28;20221;-71
2023/01/30 12:47:21;;;;;;;11.93;2.90;;;10.50;1.00;;;;;;4998630;28;20222;-72
2023/01/30 12:50:23;;;;;;;12.17;3.63;;;9.60;1.00;;;;;;5003624;28;20255;-71
2023/01/30 12:53:22;;;;;;;17.10;3.90;;;9.40;1.00;;;;;;4971495;28;20274;-69
2023/01/30 12:55:58;;;;;;;17.30;3.63;;;9.20;1.00;;;;;;4978914;28;20763;-70
2023/01/30 12:58:31;;;;;;;18.47;3.80;;;9.30;1.00;;;;;;4981077;28;20225;-68
2023/01/30 13:01:23;;;;;;;13.67;3.00;;;9.10;1.00;;;;;;4979162;28;20657;-67
2023/01/30 13:04:17;;;;;;;14.20;3.70;;;8.80;1.00;;;;;;4970791;28;20812;-68
2023/01/30 13:06:50;;;;;;;10.87;3.90;;;8.60;1.00;;;;;;4986061;28;20262;-68
2023/01/30 13:09:37;;;;;;;15.37;3.60;;;8.50;1.00;;;;;;4994671;28;20205;-67
2023/01/30 13:12:14;;;;;;;13.13;3.50;;;8.30;1.00;;;;;;4988536;28;20219;-69
2023/01/30 13:14:55;;;;;;;11.90;3.37;;;8.10;1.00;;;;;;4987147;28;20236;-69
2023/01/30 13:17:47;;;;;;;15.17;3.90;;;8.00;1.00;;;;;;4996205;28;20260;-67
2023/01/30 13:20:35;;;;;;;17.67;4.30;;;8.00;1.00;;;;;;4994234;28;20297;-69
2023/01/30 13:23:14;;;;;;;16.90;3.37;;;7.80;1.00;;;;;;4995190;28;20589;-69